Time;durP1;ratioP1;P1;durP2;ratioP2;P2;SDS_P1;SDS_P2;PMS_P1;PMS_P2;Temp;Humidity;BMP_temperature;BMP_pressure;BME280_temperature;BME280_humidity;BME280_pressure;Samples;Min_cycle;Max_cycle;Signal;HPM_P1;HPM_P2
2022/03/20 00:04:04;;;;;;;41.80;21.40;;;;;;;3.46;34.62;101569.20;233437;1217;139146;-59
2022/03/20 00:09:07;;;;;;;45.90;22.30;;;;;;;3.48;34.72;101565.36;233292;1218;139589;-61
2022/03/20 00:14:10;;;;;;;42.20;21.10;;;;;;;3.42;34.84;101568.30;233317;1219;139120;-60
2022/03/20 00:19:13;;;;;;;44.60;22.20;;;;;;;3.35;34.94;101565.43;233159;1219;138863;-61
2022/03/20 00:24:18;;;;;;;41.30;21.00;;;;;;;3.29;34.92;101563.11;233474;1217;138911;-61
2022/03/20 00:29:21;;;;;;;41.50;22.00;;;;;;;3.23;35.19;101563.92;233131;1217;138918;-62
2022/03/20 00:34:24;;;;;;;43.50;21.10;;;;;;;3.12;35.43;101561.38;233329;1217;138844;-60
2022/03/20 00:39:27;;;;;;;37.00;20.90;;;;;;;3.06;35.34;101561.50;233281;1217;139122;-60
2022/03/20 00:44:31;;;;;;;42.30;21.30;;;;;;;3.01;35.83;101563.19;233285;1218;139117;-59
2022/03/20 00:49:34;;;;;;;41.90;21.30;;;;;;;2.96;35.73;101567.54;233248;1217;138937;-59
2022/03/20 00:54:37;;;;;;;40.00;21.50;;;;;;;2.91;35.74;101568.36;233288;1217;139421;-61
2022/03/20 00:59:41;;;;;;;43.10;22.60;;;;;;;2.84;35.80;101562.51;233288;1217;139098;-61
2022/03/20 01:04:44;;;;;;;39.90;21.20;;;;;;;2.82;35.83;101562.49;233378;1217;139414;-60
2022/03/20 01:09:47;;;;;;;42.90;21.00;;;;;;;2.82;35.72;101559.34;233413;1217;140142;-62
2022/03/20 01:14:50;;;;;;;41.50;22.10;;;;;;;2.78;35.90;101556.66;233548;1217;139478;-60
2022/03/20 01:19:53;;;;;;;39.20;21.20;;;;;;;2.77;35.94;101554.54;233343;1217;139191;-59
2022/03/20 01:24:56;;;;;;;38.90;20.30;;;;;;;2.76;36.04;101550.50;233326;1217;139472;-60
2022/03/20 01:29:59;;;;;;;35.40;20.40;;;;;;;2.68;36.26;101548.32;233303;1217;139151;-61
2022/03/20 01:35:02;;;;;;;38.40;20.30;;;;;;;2.65;36.30;101557.05;233427;1217;139724;-60
2022/03/20 01:40:06;;;;;;;36.70;19.80;;;;;;;2.62;36.41;101551.94;233439;1217;139697;-60
2022/03/20 01:45:17;;;;;;;39.10;20.60;;;;;;;2.60;36.28;101553.66;233194;1219;139636;-60
2022/03/20 01:50:23;;;;;;;37.20;20.30;;;;;;;2.59;36.30;101553.30;233122;1217;139393;-60
2022/03/20 01:55:28;;;;;;;37.60;20.40;;;;;;;2.56;36.43;101545.02;233221;1217;139093;-59
2022/03/20 02:00:32;;;;;;;36.40;20.20;;;;;;;2.52;36.59;101543.94;233478;1217;141095;-62
2022/03/20 02:05:37;;;;;;;42.30;20.90;;;;;;;2.49;36.66;101545.48;233203;1217;139257;-63
2022/03/20 02:10:43;;;;;;;42.30;20.50;;;;;;;2.48;36.47;101545.13;233236;1217;138978;-60
2022/03/20 02:15:46;;;;;;;36.60;19.50;;;;;;;2.47;36.74;101549.33;233370;1217;138949;-60
2022/03/20 02:20:50;;;;;;;36.30;19.80;;;;;;;2.46;36.81;101541.58;233233;1217;139070;-60
2022/03/20 02:25:53;;;;;;;36.30;20.60;;;;;;;2.46;36.89;101547.73;233299;1218;140865;-58
2022/03/20 02:30:56;;;;;;;36.10;20.70;;;;;;;2.46;36.84;101544.92;233271;1217;139537;-59
2022/03/20 02:35:59;;;;;;;37.80;21.20;;;;;;;2.42;36.90;101541.72;233331;1217;139363;-60
2022/03/20 02:41:14;;;;;;;38.40;20.40;;;;;;;2.33;37.04;101540.91;233198;1217;139467;-60
2022/03/20 02:46:17;;;;;;;42.00;20.90;;;;;;;2.24;37.19;101543.77;233447;1217;138793;-60
2022/03/20 02:51:20;;;;;;;38.50;20.90;;;;;;;2.19;37.27;101545.12;233205;1217;139519;-59
2022/03/20 02:56:26;;;;;;;39.70;21.30;;;;;;;2.15;37.36;101544.71;233274;1217;139955;-62
2022/03/20 03:01:29;;;;;;;42.60;21.80;;;;;;;2.12;37.40;101540.12;233231;1217;139534;-62
2022/03/20 03:06:33;;;;;;;35.80;20.50;;;;;;;2.09;37.65;101537.10;233307;1217;139385;-62
2022/03/20 03:11:36;;;;;;;41.00;20.80;;;;;;;2.05;37.64;101540.55;233276;1217;139085;-62
2022/03/20 03:16:39;;;;;;;38.50;21.10;;;;;;;2.01;37.65;101544.35;233209;1217;139551;-61
2022/03/20 03:21:42;;;;;;;43.90;20.20;;;;;;;1.96;37.69;101546.39;233304;1217;139855;-61
2022/03/20 03:26:45;;;;;;;36.20;20.00;;;;;;;1.91;37.91;101552.80;233234;1217;139017;-62
2022/03/20 03:31:48;;;;;;;36.20;20.10;;;;;;;1.83;38.15;101552.35;233245;1217;139225;-60
2022/03/20 03:36:51;;;;;;;41.10;21.20;;;;;;;1.78;38.14;101551.90;233079;1217;138537;-60
2022/03/20 03:41:54;;;;;;;40.40;21.90;;;;;;;1.74;38.13;101549.08;233181;1217;139261;-59
2022/03/20 03:46:57;;;;;;;37.50;21.30;;;;;;;1.71;38.29;101554.79;233340;1217;138907;-59
2022/03/20 03:52:01;;;;;;;38.50;20.30;;;;;;;1.65;38.38;101557.15;233180;1217;246164;-63
2022/03/20 03:57:04;;;;;;;44.10;21.60;;;;;;;1.59;38.59;101554.97;233406;1217;139729;-60
2022/03/20 04:02:08;;;;;;;41.10;21.00;;;;;;;1.56;38.60;101554.58;233350;1217;139135;-59
2022/03/20 04:07:12;;;;;;;43.50;22.90;;;;;;;1.55;38.55;101557.17;233238;1217;139691;-60
2022/03/20 04:12:16;;;;;;;43.00;22.00;;;;;;;1.53;38.64;101556.80;233338;1217;140127;-60
2022/03/20 04:17:19;;;;;;;44.60;22.20;;;;;;;1.53;38.88;101562.40;233270;1217;139267;-61
2022/03/20 04:22:22;;;;;;;42.20;23.40;;;;;;;1.52;38.80;101562.02;233296;1218;139409;-60
2022/03/20 04:27:25;;;;;;;44.00;22.90;;;;;;;1.46;38.90;101570.34;233303;1219;139203;-59
2022/03/20 04:32:30;;;;;;;42.40;22.50;;;;;;;1.41;38.97;101575.86;233360;1217;139133;-60
2022/03/20 04:37:33;;;;;;;48.70;23.60;;;;;;;1.37;38.95;101578.40;233344;1217;138855;-58
2022/03/20 04:42:36;;;;;;;38.90;21.20;;;;;;;1.32;39.09;101576.05;233220;1217;139078;-57
2022/03/20 04:58:30;;;;;;;42.40;23.30;;;;;;;1.23;39.45;101584.29;233654;1217;138905;-60
2022/03/20 05:03:34;;;;;;;43.40;23.80;;;;;;;1.23;39.53;101591.11;233145;1219;139894;-61
2022/03/20 05:08:37;;;;;;;47.50;23.00;;;;;;;1.21;39.50;101597.02;233190;1219;139454;-61
2022/03/20 05:13:40;;;;;;;47.20;23.30;;;;;;;1.17;39.80;101604.99;233349;1217;139060;-60
2022/03/20 05:18:44;;;;;;;39.80;21.90;;;;;;;1.15;39.59;101606.52;233250;1217;138805;-60
2022/03/20 05:23:47;;;;;;;52.30;23.00;;;;;;;1.13;39.90;101606.67;233193;1217;139389;-60
2022/03/20 05:28:50;;;;;;;42.00;22.60;;;;;;;1.12;39.96;101603.88;233296;1217;139037;-59
2022/03/20 05:33:53;;;;;;;44.90;23.90;;;;;;;1.14;40.06;101616.48;233315;1218;139281;-60
2022/03/20 05:38:56;;;;;;;45.40;23.50;;;;;;;1.12;40.07;101621.70;233257;1217;139331;-60
2022/03/20 05:43:59;;;;;;;44.00;23.50;;;;;;;1.14;40.38;101622.60;233237;1218;139687;-61
2022/03/20 05:49:02;;;;;;;44.50;23.30;;;;;;;1.19;40.44;101627.23;233300;1217;140928;-62
2022/03/20 05:54:06;;;;;;;42.50;22.60;;;;;;;1.25;40.70;101628.39;233255;1216;139167;-63
2022/03/20 05:59:09;;;;;;;54.50;24.60;;;;;;;1.31;40.51;101634.80;233283;1216;140106;-62
2022/03/20 06:04:13;;;;;;;41.50;22.60;;;;;;;1.40;40.56;101639.14;233329;1217;139786;-62
2022/03/20 06:09:17;;;;;;;48.60;22.90;;;;;;;1.48;40.69;101643.30;233267;1217;140525;-58
2022/03/20 06:14:21;;;;;;;41.40;23.30;;;;;;;1.55;40.45;101651.48;233286;1217;139027;-60
2022/03/20 06:19:24;;;;;;;44.10;22.70;;;;;;;1.63;40.65;101652.48;233226;1217;140425;-60
2022/03/20 06:24:27;;;;;;;43.90;23.10;;;;;;;1.75;40.64;101657.05;233224;1217;139750;-60
2022/03/20 06:29:30;;;;;;;47.70;24.50;;;;;;;1.86;40.61;101657.74;233254;1217;140258;-60
2022/03/20 06:34:33;;;;;;;43.90;23.20;;;;;;;1.94;40.47;101669.25;233245;1218;138999;-59
2022/03/20 06:39:37;;;;;;;45.90;24.20;;;;;;;2.03;40.55;101671.86;233338;1218;139702;-60
2022/03/20 06:44:40;;;;;;;43.40;23.20;;;;;;;2.15;40.71;101676.05;233134;1217;139435;-61
2022/03/20 06:49:45;;;;;;;39.20;22.30;;;;;;;2.25;40.72;101681.80;233262;1217;139055;-61
2022/03/20 06:54:49;;;;;;;41.30;23.00;;;;;;;2.37;40.54;101683.73;233248;1217;139082;-61
2022/03/20 06:59:55;;;;;;;41.40;21.90;;;;;;;2.49;40.41;101690.38;233369;1217;139132;-60
2022/03/20 07:05:00;;;;;;;37.10;22.20;;;;;;;2.62;40.38;101691.77;233270;1218;138901;-60
2022/03/20 07:10:04;;;;;;;39.30;22.70;;;;;;;2.76;40.31;101693.71;233389;1217;139031;-62
2022/03/20 07:15:08;;;;;;;48.20;22.90;;;;;;;2.89;40.25;101697.20;233294;1217;139009;-61
2022/03/20 07:20:11;;;;;;;40.70;21.20;;;;;;;3.04;40.08;101703.52;233246;1219;139084;-61
2022/03/20 07:30:37;;;;;;;40.10;21.10;;;;;;;3.34;39.70;101707.17;233355;1217;139312;-64
2022/03/20 07:35:40;;;;;;;37.60;21.20;;;;;;;3.48;39.76;101713.48;233151;1217;139334;-61
2022/03/20 07:40:43;;;;;;;34.80;20.40;;;;;;;3.65;39.73;101717.50;233492;1217;139544;-61
2022/03/20 07:45:46;;;;;;;40.80;21.50;;;;;;;3.82;39.81;101723.80;233376;1217;139172;-59
2022/03/20 07:50:50;;;;;;;116.70;70.80;;;;;;;3.96;39.69;101727.27;233226;1217;138835;-59
2022/03/20 07:55:53;;;;;;;53.10;29.30;;;;;;;4.21;40.12;101720.09;233160;1217;139502;-61
2022/03/20 08:00:56;;;;;;;43.80;24.00;;;;;;;4.46;39.73;101718.48;233141;1218;139561;-61
2022/03/20 08:05:59;;;;;;;37.60;20.50;;;;;;;4.55;39.10;101710.63;233227;1217;139699;-60
2022/03/20 08:11:02;;;;;;;63.80;38.20;;;;;;;4.70;39.28;101708.06;233212;1217;139193;-61
2022/03/20 08:16:06;;;;;;;37.50;21.70;;;;;;;4.93;38.92;101706.96;233305;1217;139495;-60
2022/03/20 08:21:11;;;;;;;35.50;21.30;;;;;;;5.27;39.24;101709.34;233191;1217;140478;-60
2022/03/20 08:26:15;;;;;;;40.40;21.60;;;;;;;5.49;38.16;101702.73;233138;1219;139635;-62
2022/03/20 08:31:18;;;;;;;38.00;20.40;;;;;;;5.56;37.72;101703.79;233218;1218;139267;-60
2022/03/20 08:36:21;;;;;;;40.60;21.80;;;;;;;5.63;37.63;101697.98;233230;1218;138919;-60
2022/03/20 08:41:24;;;;;;;422.40;281.50;;;;;;;5.73;37.78;101697.98;233341;1217;138899;-59
2022/03/20 08:46:27;;;;;;;62.70;33.90;;;;;;;5.97;38.00;101693.44;233318;1218;140976;-60
2022/03/20 08:51:31;;;;;;;40.90;22.60;;;;;;;6.17;37.46;101691.49;233375;1217;139679;-61
2022/03/20 08:56:34;;;;;;;42.70;22.60;;;;;;;6.30;37.12;101689.36;233177;1217;139566;-60
2022/03/20 09:01:37;;;;;;;37.20;21.00;;;;;;;6.43;36.80;101691.45;233209;1218;139892;-59
2022/03/20 09:06:43;;;;;;;37.00;21.00;;;;;;;6.56;36.54;101687.54;233386;1217;139096;-60
2022/03/20 09:11:47;;;;;;;37.10;19.40;;;;;;;6.68;36.21;101684.14;233229;1217;139706;-60
2022/03/20 09:22:12;;;;;;;34.30;19.90;;;;;;;6.99;36.01;101673.79;233568;1219;139594;-60
2022/03/20 09:27:15;;;;;;;31.50;19.20;;;;;;;7.17;35.90;101669.80;233144;1217;139225;-60
2022/03/20 09:32:20;;;;;;;28.40;18.20;;;;;;;7.37;36.04;101664.56;233103;1218;139037;-60
2022/03/20 09:37:23;;;;;;;161.50;108.10;;;;;;;7.55;35.55;101664.79;233199;1217;138825;-60
2022/03/20 09:42:26;;;;;;;34.10;20.90;;;;;;;7.75;35.66;101661.98;233122;1217;139722;-61
2022/03/20 09:47:29;;;;;;;32.60;18.40;;;;;;;7.94;35.53;101660.95;233160;1217;139214;-61
2022/03/20 09:52:36;;;;;;;34.10;18.60;;;;;;;8.03;35.02;101660.68;233356;1217;139254;-60
2022/03/20 09:57:39;;;;;;;65.90;42.60;;;;;;;8.18;35.53;101658.94;233133;1217;139037;-61
2022/03/20 10:02:42;;;;;;;32.10;18.00;;;;;;;8.40;35.43;101652.20;233356;1217;139491;-61
2022/03/20 10:07:45;;;;;;;34.10;18.00;;;;;;;8.57;34.88;101646.17;233274;1217;139604;-61
2022/03/20 10:12:55;;;;;;;29.20;16.90;;;;;;;8.75;34.60;101650.02;233171;1217;139117;-62
2022/03/20 10:18:24;;;;;;;26.30;15.80;;;;;;;8.95;34.47;101643.04;233299;1217;139953;-60
2022/03/20 10:23:27;;;;;;;23.80;14.10;;;;;;;9.16;34.09;101639.91;233275;1219;138927;-58
2022/03/20 10:28:36;;;;;;;22.60;14.10;;;;;;;9.34;33.77;101633.29;233329;1218;139603;-58
2022/03/20 10:33:40;;;;;;;22.70;13.60;;;;;;;9.53;33.37;101630.32;233260;1217;139667;-61
2022/03/20 10:38:46;;;;;;;21.40;13.80;;;;;;;9.80;33.11;101624.73;233253;1217;139148;-60
2022/03/20 10:43:51;;;;;;;23.40;14.30;;;;;;;10.10;33.11;101617.09;233311;1217;140143;-60
2022/03/20 10:49:03;;;;;;;32.20;20.20;;;;;;;10.49;33.00;101614.78;232729;1217;139761;-58
2022/03/20 10:54:14;;;;;;;22.30;13.40;;;;;;;10.84;32.78;101606.42;233222;1217;139985;-59
2022/03/20 10:59:17;;;;;;;21.80;12.40;;;;;;;11.04;32.35;101599.91;233203;1217;140749;-59
2022/03/20 11:04:23;;;;;;;20.30;12.00;;;;;;;11.16;31.54;101594.33;233330;1217;139882;-58
2022/03/20 11:09:27;;;;;;;27.90;14.70;;;;;;;11.28;32.42;101586.56;233115;1218;139699;-54
2022/03/20 11:14:33;;;;;;;46.50;29.50;;;;;;;13.07;36.46;101567.47;233153;1217;139739;-58
2022/03/20 11:19:43;;;;;;;33.80;19.90;;;;;;;14.83;35.43;101554.91;233231;1217;139480;-58
2022/03/20 11:24:51;;;;;;;15.80;10.20;;;;;;;15.94;33.89;101541.95;233252;1217;140030;-59
2022/03/20 11:30:15;;;;;;;16.50;10.40;;;;;;;15.84;29.96;101534.83;233121;1217;141915;-60
2022/03/20 11:35:25;;;;;;;15.30;9.40;;;;;;;15.06;28.70;101535.95;233265;1217;139648;-61
2022/03/20 11:40:34;;;;;;;15.20;9.80;;;;;;;14.49;28.29;101527.67;233288;1217;139329;-61
2022/03/20 11:45:37;;;;;;;91.80;72.20;;;;;;;14.15;28.47;101525.02;233289;1217;139924;-62
2022/03/20 11:50:44;;;;;;;86.50;59.80;;;;;;;13.91;28.18;101522.11;233277;1217;139326;-58
2022/03/20 11:55:53;;;;;;;20.00;12.20;;;;;;;13.79;28.23;101514.88;233239;1217;139192;-58
2022/03/20 12:01:03;;;;;;;14.60;8.50;;;;;;;13.84;27.97;101506.51;233114;1217;143584;-61
2022/03/20 12:06:18;;;;;;;15.60;8.30;;;;;;;13.91;27.40;101500.17;233166;1217;139143;-60
2022/03/20 12:11:39;;;;;;;16.60;10.60;;;;;;;14.08;27.37;101500.46;233361;1217;139438;-58
2022/03/20 12:16:43;;;;;;;12.80;8.30;;;;;;;14.84;32.38;101488.39;233151;1217;139810;-61
2022/03/20 12:22:27;;;;;;;11.60;7.80;;;;;;;16.09;31.67;101485.02;233211;1219;139230;-59
2022/03/20 12:27:30;;;;;;;12.60;8.60;;;;;;;17.04;29.95;101469.61;233191;1218;139477;-59
2022/03/20 12:32:49;;;;;;;14.30;8.60;;;;;;;17.56;29.44;101468.02;232940;1217;139855;-58
2022/03/20 12:37:56;;;;;;;15.20;8.50;;;;;;;17.82;28.60;101455.71;233130;1217;139631;-56
2022/03/20 12:43:08;;;;;;;13.60;7.90;;;;;;;17.73;26.63;101457.63;233023;1217;140505;-58
2022/03/20 12:48:19;;;;;;;207.20;76.30;;;;;;;17.34;27.30;101448.33;233096;1217;139980;-58
2022/03/20 12:53:24;;;;;;;42.80;20.40;;;;;;;17.64;28.04;101448.56;233150;1217;139785;-58
2022/03/20 12:58:28;;;;;;;33.00;18.70;;;;;;;18.04;28.22;101439.63;233204;1217;139305;-58
2022/03/20 13:03:32;;;;;;;18.30;12.40;;;;;;;18.37;27.57;101441.75;233141;1217;139796;-57
2022/03/20 13:08:38;;;;;;;13.40;8.40;;;;;;;18.42;27.00;101436.64;233113;1217;139975;-60
2022/03/20 13:13:41;;;;;;;12.40;8.30;;;;;;;18.19;26.30;101433.93;233100;1219;140500;-58
2022/03/20 13:18:45;;;;;;;10.70;7.00;;;;;;;17.95;26.08;101431.98;232920;1219;139374;-57
2022/03/20 13:23:49;;;;;;;12.10;6.70;;;;;;;17.92;25.87;101423.20;233103;1217;140021;-58
2022/03/20 13:28:54;;;;;;;79.60;59.50;;;;;;;18.05;25.76;101424.45;233036;1219;139205;-59
2022/03/20 13:34:00;;;;;;;13.60;8.90;;;;;;;18.10;25.71;101419.84;233186;1218;139613;-59
2022/03/20 13:39:09;;;;;;;10.20;7.60;;;;;;;18.28;25.54;101414.95;233130;1217;141324;-60
2022/03/20 13:44:15;;;;;;;9.20;6.40;;;;;;;18.42;25.42;101415.57;233006;1218;140364;-59
2022/03/20 13:49:19;;;;;;;9.90;6.40;;;;;;;18.40;24.92;101409.58;233021;1217;140312;-58
2022/03/20 13:54:23;;;;;;;8.60;5.90;;;;;;;18.44;25.15;101404.30;233083;1217;139248;-58
2022/03/20 13:59:30;;;;;;;242.90;166.70;;;;;;;18.50;25.38;101404.88;233093;1217;139804;-57
2022/03/20 14:04:36;;;;;;;14.40;7.70;;;;;;;18.10;24.45;101402.25;233169;1217;139953;-58
2022/03/20 14:09:41;;;;;;;8.40;6.20;;;;;;;17.38;23.17;101402.17;233103;1217;140943;-58
2022/03/20 14:14:48;;;;;;;8.70;6.10;;;;;;;16.52;22.70;101403.63;233053;1218;140805;-60
2022/03/20 14:19:51;;;;;;;8.40;5.40;;;;;;;15.78;22.49;101407.66;233173;1217;139886;-59
2022/03/20 14:24:54;;;;;;;10.90;7.30;;;;;;;15.17;22.64;101404.08;233249;1217;138913;-58
2022/03/20 14:40:47;;;;;;;14.10;6.40;;;;;;;13.65;23.05;101401.22;233252;1217;139235;-60
2022/03/20 14:45:50;;;;;;;7.90;5.80;;;;;;;13.32;22.56;101397.21;233137;1217;139466;-58
2022/03/20 14:50:53;;;;;;;9.30;5.40;;;;;;;13.01;22.79;101392.73;233156;1217;139227;-59
2022/03/20 14:55:56;;;;;;;12.40;6.40;;;;;;;12.82;23.47;101390.00;233114;1219;139048;-59
2022/03/20 15:00:59;;;;;;;8.50;6.10;;;;;;;12.66;23.26;101386.09;233124;1219;139786;-59
2022/03/20 15:06:03;;;;;;;10.20;5.90;;;;;;;12.48;23.21;101382.92;233257;1217;139803;-59
2022/03/20 15:16:28;;;;;;;12.10;5.80;;;;;;;12.25;23.08;101380.45;233318;1217;139340;-58
2022/03/20 15:21:31;;;;;;;7.70;4.90;;;;;;;12.22;23.28;101383.05;233306;1217;139797;-59
2022/03/20 15:26:35;;;;;;;6.10;4.40;;;;;;;12.09;23.36;101384.67;233145;1217;138533;-58
2022/03/20 15:31:39;;;;;;;9.00;4.40;;;;;;;11.96;23.03;101383.48;233200;1217;138455;-60
2022/03/20 15:36:45;;;;;;;268.80;171.20;;;;;;;11.87;23.08;101384.10;232938;1217;139478;-58
2022/03/20 15:41:51;;;;;;;13.30;6.50;;;;;;;11.90;23.59;101387.39;233002;1217;139762;-59
2022/03/20 15:46:55;;;;;;;8.60;4.70;;;;;;;11.83;23.20;101382.25;233137;1217;141003;-59
2022/03/20 15:52:00;;;;;;;8.30;5.10;;;;;;;11.71;23.08;101379.03;233171;1217;140204;-60
2022/03/20 15:57:03;;;;;;;7.50;4.50;;;;;;;11.57;23.18;101378.54;233192;1217;139290;-60
2022/03/20 16:02:11;;;;;;;6.30;4.10;;;;;;;11.39;23.19;101376.21;233042;1219;139847;-60
2022/03/20 16:07:15;;;;;;;6.30;4.00;;;;;;;11.27;23.10;101374.92;232917;1218;139958;-60
2022/03/20 16:12:18;;;;;;;6.80;4.10;;;;;;;11.18;23.14;101375.37;233110;1217;139633;-60
2022/03/20 16:17:21;;;;;;;8.10;4.20;;;;;;;11.09;23.51;101372.23;233028;1219;139214;-60
2022/03/20 16:22:24;;;;;;;7.50;4.60;;;;;;;11.00;23.54;101371.94;233175;1218;139019;-60
2022/03/20 16:32:48;;;;;;;18.10;11.40;;;;;;;10.98;24.14;101367.55;232997;1219;140009;-60
2022/03/20 16:37:51;;;;;;;12.80;6.10;;;;;;;10.92;24.05;101370.19;233084;1218;140059;-59
2022/03/20 16:42:54;;;;;;;10.40;6.00;;;;;;;10.77;23.82;101369.33;233106;1219;140366;-60
2022/03/20 16:47:57;;;;;;;12.10;6.40;;;;;;;10.63;24.10;101364.89;233065;1219;139455;-58
2022/03/20 16:53:00;;;;;;;291.50;207.60;;;;;;;10.49;24.49;101369.84;233295;1217;139155;-61
2022/03/20 16:58:07;;;;;;;21.70;13.20;;;;;;;10.51;24.91;101365.89;233182;1217;139788;-60
2022/03/20 17:03:15;;;;;;;15.80;8.70;;;;;;;10.43;24.51;101368.92;233060;1218;139535;-59
2022/03/20 17:08:20;;;;;;;16.70;8.20;;;;;;;10.26;24.34;101369.84;233053;1217;139013;-58
2022/03/20 17:13:23;;;;;;;12.50;7.60;;;;;;;10.08;24.34;101372.52;232976;1217;139596;-58
2022/03/20 17:18:27;;;;;;;13.60;8.00;;;;;;;9.90;24.18;101380.02;232946;1216;139701;-58
2022/03/20 17:23:30;;;;;;;19.40;9.70;;;;;;;9.75;24.37;101384.59;232865;1219;139114;-60
2022/03/20 17:28:34;;;;;;;19.30;9.90;;;;;;;9.63;24.50;101390.52;233177;1217;139882;-59
2022/03/20 17:33:37;;;;;;;17.80;10.60;;;;;;;9.51;24.69;101392.53;233190;1217;139665;-60
2022/03/20 17:38:41;;;;;;;19.60;10.30;;;;;;;9.41;24.76;101398.58;233113;1217;139626;-58
2022/03/20 17:43:44;;;;;;;19.80;10.80;;;;;;;9.29;24.75;101400.94;233090;1217;141072;-57
2022/03/20 17:48:47;;;;;;;30.50;16.80;;;;;;;9.19;24.91;101400.41;233059;1217;139215;-56
2022/03/20 17:53:50;;;;;;;21.70;12.20;;;;;;;9.18;25.59;101406.11;233037;1217;139831;-60
2022/03/20 17:58:54;;;;;;;22.80;12.50;;;;;;;9.12;25.39;101409.75;233046;1217;138959;-58
2022/03/20 18:09:19;;;;;;;23.80;12.60;;;;;;;8.82;25.46;101416.63;233074;1217;140198;-57
2022/03/20 18:14:22;;;;;;;24.70;11.80;;;;;;;8.69;25.52;101415.97;233175;1217;139405;-58
2022/03/20 18:19:25;;;;;;;21.70;13.40;;;;;;;8.56;25.77;101418.27;233075;1217;139504;-58
2022/03/20 18:24:32;;;;;;;26.90;13.90;;;;;;;8.41;26.08;101420.27;233070;1217;140873;-59
2022/03/20 18:29:36;;;;;;;23.90;14.20;;;;;;;8.31;25.98;101422.33;233031;1217;139357;-58
2022/03/20 18:34:39;;;;;;;27.10;13.40;;;;;;;8.22;26.36;101416.27;232991;1219;139500;-57
2022/03/20 18:39:42;;;;;;;26.60;14.70;;;;;;;8.15;26.17;101414.25;233028;1217;139318;-58
2022/03/20 18:44:46;;;;;;;197.80;145.60;;;;;;;8.15;27.05;101413.02;233039;1218;138787;-58
2022/03/20 18:49:50;;;;;;;27.80;16.80;;;;;;;8.28;27.09;101410.71;233117;1218;139673;-58
2022/03/20 18:54:53;;;;;;;27.70;15.60;;;;;;;8.23;26.69;101411.50;233132;1219;139585;-57
2022/03/20 18:59:56;;;;;;;26.90;14.20;;;;;;;8.13;26.84;101409.68;233057;1219;140578;-58
2022/03/20 19:05:00;;;;;;;27.10;14.40;;;;;;;8.01;26.73;101414.63;233129;1217;139278;-57
2022/03/20 19:10:04;;;;;;;28.90;14.60;;;;;;;7.88;26.62;101416.55;233286;1217;139038;-55
2022/03/20 19:15:09;;;;;;;23.80;14.50;;;;;;;7.73;26.95;101417.27;233100;1217;139385;-58
2022/03/20 19:20:13;;;;;;;;;;;;;;;7.57;27.27;101418.34;233131;1217;139619;-57
2022/03/20 19:25:19;;;;;;;26.20;14.30;;;;;;;7.45;27.36;101421.65;233207;1217;125311;-58
2022/03/20 19:30:27;;;;;;;30.80;15.60;;;;;;;7.37;27.66;101421.39;233083;1219;138894;-58
2022/03/20 19:40:53;;;;;;;64.80;41.10;;;;;;;7.38;28.07;101413.27;233216;1218;139168;-59
2022/03/20 19:45:56;;;;;;;33.50;17.90;;;;;;;7.55;28.48;101415.89;233294;1217;138709;-59
2022/03/20 19:50:59;;;;;;;32.00;17.10;;;;;;;7.49;28.15;101414.73;233111;1219;138849;-61
2022/03/20 19:56:03;;;;;;;30.70;16.80;;;;;;;7.35;28.02;101417.71;233046;1219;139111;-61
2022/03/20 20:01:12;;;;;;;34.00;17.20;;;;;;;7.18;28.15;101415.75;233057;1217;138936;-59
2022/03/20 20:06:15;;;;;;;33.30;18.70;;;;;;;7.02;28.25;101417.48;233112;1219;138784;-60
2022/03/20 20:11:20;;;;;;;30.90;17.80;;;;;;;6.90;28.30;101418.48;233106;1217;139487;-61
2022/03/20 20:16:23;;;;;;;36.20;18.00;;;;;;;6.78;28.52;101420.35;233282;1217;139187;-60
2022/03/20 20:21:26;;;;;;;35.80;19.10;;;;;;;6.64;28.45;101419.21;233051;1218;139057;-59
2022/03/20 20:26:29;;;;;;;37.60;18.90;;;;;;;6.56;28.63;101416.98;233146;1217;139936;-59
2022/03/20 20:31:32;;;;;;;37.30;18.00;;;;;;;6.47;28.93;101416.70;233151;1217;139531;-58
2022/03/20 20:36:36;;;;;;;89.80;46.50;;;;;;;6.38;29.21;101415.69;233097;1218;140376;-60
2022/03/20 20:41:41;;;;;;;40.70;22.30;;;;;;;6.49;29.94;101417.21;233085;1218;138849;-57
2022/03/20 20:46:45;;;;;;;38.80;19.30;;;;;;;6.58;29.75;101419.44;233211;1217;140440;-60
2022/03/20 20:51:54;;;;;;;39.30;20.20;;;;;;;6.47;29.79;101418.80;233083;1217;139347;-61
2022/03/20 20:56:57;;;;;;;37.80;19.80;;;;;;;6.32;29.65;101424.73;233138;1218;139179;-60
2022/03/20 21:02:02;;;;;;;39.40;20.00;;;;;;;6.17;29.73;101419.88;233026;1218;138762;-63
2022/03/20 21:12:29;;;;;;;38.50;22.20;;;;;;;5.85;30.47;101417.54;233094;1217;139294;-58
2022/03/20 21:17:34;;;;;;;45.30;23.80;;;;;;;5.74;30.36;101418.81;233109;1217;139388;-59
2022/03/20 21:22:40;;;;;;;50.80;24.30;;;;;;;5.66;30.51;101417.09;233195;1218;139182;-62
2022/03/20 21:27:44;;;;;;;40.50;22.40;;;;;;;5.61;30.41;101414.46;233069;1217;139727;-61
2022/03/20 21:32:47;;;;;;;42.60;22.40;;;;;;;5.56;30.60;101410.25;233051;1218;139695;-59
2022/03/20 21:37:51;;;;;;;47.60;21.80;;;;;;;5.48;30.88;101413.61;232955;1218;139494;-59
2022/03/20 21:42:55;;;;;;;45.20;22.20;;;;;;;5.42;31.11;101413.64;233078;1217;139420;-59
2022/03/20 21:48:00;;;;;;;49.60;23.70;;;;;;;5.35;31.06;101411.73;233199;1217;139095;-60
2022/03/20 21:53:04;;;;;;;51.90;23.50;;;;;;;5.29;31.11;101411.57;233151;1217;139024;-60
2022/03/20 21:58:10;;;;;;;46.30;24.40;;;;;;;5.24;31.63;101410.17;233270;1217;139827;-59
2022/03/20 22:03:15;;;;;;;51.30;24.30;;;;;;;5.18;31.58;101412.29;233146;1218;139393;-59
2022/03/20 22:08:18;;;;;;;51.20;26.80;;;;;;;5.10;31.53;101416.16;233199;1217;139352;-59
2022/03/20 22:13:22;;;;;;;53.70;26.60;;;;;;;5.03;31.87;101419.88;233144;1217;139818;-58
2022/03/20 22:18:25;;;;;;;56.70;27.90;;;;;;;5.00;32.23;101424.80;233059;1219;139742;-58
2022/03/20 22:23:28;;;;;;;62.60;30.80;;;;;;;4.97;32.22;101426.39;233082;1218;139992;-57
2022/03/20 22:28:34;;;;;;;62.80;31.40;;;;;;;4.93;32.36;101427.27;233299;1219;139087;-59
2022/03/20 22:33:37;;;;;;;;;;;;;;;4.88;32.38;101431.84;233217;1219;139277;-59
2022/03/20 22:38:40;;;;;;;55.40;28.20;;;;;;;4.80;32.65;101433.77;233281;1218;125432;-58
2022/03/20 22:43:43;;;;;;;206.30;103.60;;;;;;;4.72;32.70;101429.90;233223;1219;139048;-59
2022/03/20 22:54:10;;;;;;;57.40;30.20;;;;;;;4.99;33.04;101433.23;233273;1218;139734;-59
2022/03/20 22:59:15;;;;;;;53.70;29.00;;;;;;;4.79;32.93;101435.70;233286;1217;139351;-59
2022/03/20 23:04:18;;;;;;;53.80;29.10;;;;;;;4.61;33.00;101431.12;233543;1217;139788;-58
2022/03/20 23:09:21;;;;;;;51.50;27.30;;;;;;;4.48;33.01;101432.69;233581;1217;139937;-58
2022/03/20 23:14:24;;;;;;;53.30;26.60;;;;;;;4.40;33.23;101427.41;233258;1219;139411;-58
2022/03/20 23:19:30;;;;;;;49.70;26.70;;;;;;;4.34;33.42;101425.11;233319;1217;138772;-58
2022/03/20 23:24:33;;;;;;;;;;;;;;;4.28;33.37;101426.15;233170;1219;139018;-59
2022/03/20 23:29:36;;;;;;;46.00;24.30;;;;;;;4.23;33.39;101424.21;233436;1218;127628;-59
2022/03/20 23:34:39;;;;;;;50.50;25.30;;;;;;;4.20;33.61;101422.45;233418;1218;139071;-58
2022/03/20 23:39:43;;;;;;;46.40;25.70;;;;;;;4.15;33.67;101418.58;233150;1219;140579;-58
2022/03/20 23:44:48;;;;;;;49.00;25.60;;;;;;;4.09;33.93;101419.08;233372;1217;139243;-57
2022/03/20 23:49:51;;;;;;;47.00;25.10;;;;;;;3.97;34.49;101421.86;233476;1217;139381;-58
2022/03/20 23:54:54;;;;;;;53.00;26.10;;;;;;;3.83;34.39;101422.67;233289;1217;139344;-58